Chanthaburi, Thailand

9:52 AM ICT on November 24, 2014 (GMT +0700)
U-Taphao International | Change Station
CLOSE
Current Station
Airport
Location: Rayong,
Elevation: 39 ft
Nearby Weather Stations

Elev 39 ft 12.68 °N, 101.00 °E | Updated 22 minutes ago

Mostly Cloudy
Mostly Cloudy
86 °F
Feels Like 93 °F
N
4
Wind Variable Wind from NNW

Today
High -- | Low -- °F
--% Chance of Precip.
Yesterday
High -- | Low -- °F
Precip. -- in
6:13 AM 5:42 PM
Waxing Crescent, 3% visible
Pressure 29.89 in
Visibility 3.7 miles
Clouds Few 2000 ft
Mostly Cloudy 30000 ft
Heat Index 93 °F
Dew Point 73 °F
Humidity 66%
Rainfall 0.00 in
Snow Depth Not available.
UV 4 out of 12
Pollen Not available.
Air Quality Not available.
Flu Activity Not available.
METAR VTBU 240230Z 34003KT 6000 FEW020 BKN300 30/23 Q1012 A2990

More Conditions Fewer Conditions

Pressure 29.89 in
Visibility 3.7 miles
Clouds Few 2000 ft
Mostly Cloudy 30000 ft
Heat Index 93 °F
Dew Point 73 °F
Humidity 66%
Rainfall 0.00 in
Snow Depth Not available.
UV 4 out of 12
Pollen Not available.
Air Quality Not available.
Flu Activity Not available.
METAR VTBU 240230Z 34003KT 6000 FEW020 BKN300 30/23 Q1012 A2990

More Conditions Fewer Conditions

10-Day Weather Forecast

Almanac

Astronomy

Nov. 24, 2014 Rise Set
Actual Time
Civil Twilight
Nautical Twilight
Astronomical Twilight
Moon
Length of Visible Light
Length of Day
Tomorrow will be .
, % of the Moon is Illuminated

Today's Extremes

Country Highs Country Lows

Community

WunderPhotos

Upload Photos

1,773,257 photos uploaded!

WunderBlogs® & News

Nearby

Air Quality

  Air Quality AQ Index Pollutant
Not available.

Snow Depth

Station Depth Elevation

Earthquake Activity

City Distance Mag. Time & Date
Minimum magnitude displayed is 2.5.

Coastal Water Temperatures

Place Temperature

Nearby Weather Stations